createdAt,value
2022-10-06T00:00:24.820Z,0.30
2022-10-06T00:01:27.120Z,0.40
2022-10-06T00:02:30.397Z,0.35
2022-10-06T00:03:32.383Z,0.40
2022-10-06T00:04:36.245Z,0.40
2022-10-06T00:05:38.187Z,0.40
2022-10-06T00:06:41.454Z,0.30
2022-10-06T00:07:43.420Z,0.32
2022-10-06T00:08:47.412Z,0.40
2022-10-06T00:09:50.626Z,0.32
2022-10-06T00:10:56.085Z,0.30
2022-10-06T00:11:57.926Z,0.40
2022-10-06T00:13:00.794Z,0.30
2022-10-06T00:14:02.634Z,0.30
2022-10-06T00:15:06.293Z,0.30
2022-10-06T00:16:12.574Z,0.38
2022-10-06T00:17:15.457Z,0.40
2022-10-06T00:18:17.323Z,0.40
2022-10-06T00:19:20.136Z,0.30
2022-10-06T00:20:22.828Z,0.32
2022-10-06T00:21:25.756Z,0.30
2022-10-06T00:22:33.928Z,0.30
2022-10-06T00:23:37.303Z,0.30
2022-10-06T00:24:39.220Z,0.30
2022-10-06T00:25:43.650Z,0.30
2022-10-06T00:26:46.183Z,0.40
2022-10-06T00:27:51.462Z,0.30
2022-10-06T00:28:53.568Z,0.30
2022-10-06T00:29:56.884Z,0.30
2022-10-06T00:31:01.295Z,0.30
2022-10-06T00:32:04.222Z,0.40
2022-10-06T00:33:06.042Z,0.32
2022-10-06T00:34:08.904Z,0.32
2022-10-06T00:35:10.753Z,0.40
2022-10-06T00:36:13.636Z,0.30
2022-10-06T00:37:15.475Z,0.20
2022-10-06T00:38:18.587Z,0.30
2022-10-06T00:39:22.247Z,0.30
2022-10-06T00:40:24.491Z,0.30
2022-10-06T00:41:29.717Z,0.30
2022-10-06T00:42:33.064Z,0.35
2022-10-06T00:43:51.199Z,0.30
2022-10-06T00:44:53.200Z,0.30
2022-10-06T00:45:56.127Z,0.30
2022-10-06T00:46:58.085Z,0.30
2022-10-06T00:48:06.177Z,0.30
2022-10-06T00:49:14.773Z,0.30
2022-10-06T00:50:17.049Z,0.35
2022-10-06T00:51:22.172Z,0.30
2022-10-06T00:52:29.303Z,0.40
2022-10-06T00:53:33.185Z,0.40
2022-10-06T00:54:36.131Z,0.30
2022-10-06T00:55:39.161Z,0.30
2022-10-06T00:56:43.686Z,0.30
2022-10-06T00:57:46.816Z,0.40
2022-10-06T00:58:50.362Z,0.30
2022-10-06T00:59:52.741Z,0.25
2022-10-06T01:00:56.508Z,0.30
2022-10-06T01:02:04.187Z,0.32
2022-10-06T01:03:10.772Z,0.30
2022-10-06T01:04:15.339Z,0.30
2022-10-06T01:05:29.508Z,0.30
2022-10-06T01:06:41.845Z,0.30
2022-10-06T01:07:44.752Z,0.40
2022-10-06T01:08:46.982Z,0.30
2022-10-06T01:09:50.398Z,0.32
2022-10-06T01:10:52.229Z,0.30
2022-10-06T01:12:00.766Z,0.30
2022-10-06T01:13:03.892Z,0.30
2022-10-06T01:14:07.456Z,0.30
2022-10-06T01:15:10.956Z,0.20
2022-10-06T01:16:19.540Z,0.30
2022-10-06T01:17:29.142Z,0.35
2022-10-06T01:18:33.780Z,0.30
2022-10-06T01:19:47.817Z,0.20
2022-10-06T01:20:58.207Z,0.30
2022-10-06T01:22:05.762Z,0.30
2022-10-06T01:23:13.133Z,0.30
2022-10-06T01:24:17.623Z,0.30
2022-10-06T01:25:21.485Z,0.30
2022-10-06T01:26:25.468Z,0.22
2022-10-06T01:27:31.673Z,0.20
2022-10-06T01:28:34.215Z,0.30
2022-10-06T01:29:38.101Z,0.30
2022-10-06T01:30:44.096Z,0.20
2022-10-06T01:31:47.233Z,0.30
2022-10-06T01:32:49.310Z,0.30
2022-10-06T01:33:53.324Z,0.30
2022-10-06T01:34:55.391Z,0.30
2022-10-06T01:35:58.608Z,0.30
2022-10-06T01:37:00.472Z,0.30
2022-10-06T01:38:03.836Z,0.30
2022-10-06T01:39:07.694Z,0.20
2022-10-06T01:40:11.282Z,0.30
2022-10-06T01:41:13.238Z,0.30
2022-10-06T01:42:16.708Z,0.20
2022-10-06T01:43:18.721Z,0.30
2022-10-06T01:44:21.571Z,0.22
2022-10-06T01:45:25.592Z,0.30
2022-10-06T01:46:30.098Z,0.30
2022-10-06T01:47:33.815Z,0.30
2022-10-06T01:48:37.109Z,0.30
2022-10-06T01:49:38.949Z,0.30
2022-10-06T01:50:42.338Z,0.20
2022-10-06T01:51:45.810Z,0.20
2022-10-06T01:52:48.829Z,0.30
2022-10-06T01:53:50.798Z,0.30
2022-10-06T01:54:55.490Z,0.28
2022-10-06T01:55:59.275Z,0.22
2022-10-06T01:57:03.691Z,0.30
2022-10-06T01:58:05.540Z,0.20
2022-10-06T01:59:08.636Z,0.22
2022-10-06T02:00:12.017Z,0.20
2022-10-06T02:01:18.541Z,0.28
2022-10-06T02:02:20.405Z,0.30
2022-10-06T02:03:23.284Z,0.35
2022-10-06T02:04:25.191Z,0.30
2022-10-06T02:05:28.960Z,0.30
2022-10-06T02:06:31.076Z,0.20
2022-10-06T02:07:36.242Z,0.20
2022-10-06T02:08:38.395Z,0.30
2022-10-06T02:09:42.111Z,0.20
2022-10-06T02:10:45.795Z,0.20
2022-10-06T02:11:55.396Z,0.40
2022-10-06T02:12:57.627Z,0.20
2022-10-06T02:14:01.448Z,0.20
2022-10-06T02:15:04.186Z,0.20
2022-10-06T02:16:08.180Z,0.20
2022-10-06T02:17:10.141Z,0.28
2022-10-06T02:18:12.984Z,0.30
2022-10-06T02:19:14.994Z,0.20
2022-10-06T02:20:18.059Z,0.20
2022-10-06T02:21:22.067Z,0.30
2022-10-06T02:22:24.955Z,0.22
2022-10-06T02:23:27.121Z,0.20
2022-10-06T02:24:30.157Z,0.22
2022-10-06T02:25:32.012Z,0.30
2022-10-06T02:26:36.655Z,0.30
2022-10-06T02:27:38.676Z,0.20
2022-10-06T02:28:44.718Z,0.30
2022-10-06T02:29:49.196Z,0.30
2022-10-06T02:30:52.485Z,0.30
2022-10-06T02:31:55.995Z,0.30
2022-10-06T02:32:59.816Z,0.30
2022-10-06T02:34:02.524Z,0.30
2022-10-06T02:35:06.709Z,0.30
2022-10-06T02:36:12.042Z,0.40
2022-10-06T02:37:15.989Z,0.40
2022-10-06T02:38:17.890Z,0.32
2022-10-06T02:39:21.114Z,0.30
2022-10-06T02:40:23.331Z,0.20
2022-10-06T02:41:26.918Z,0.30
2022-10-06T02:42:30.116Z,0.30
2022-10-06T02:43:33.177Z,0.30
2022-10-06T02:44:36.099Z,0.30
2022-10-06T02:45:39.312Z,0.30
2022-10-06T02:46:41.816Z,0.30
2022-10-06T02:47:44.689Z,0.30
2022-10-06T02:48:46.926Z,0.40
2022-10-06T02:49:49.908Z,0.30
2022-10-06T02:50:55.729Z,0.30
2022-10-06T02:51:58.579Z,0.30
2022-10-06T02:53:00.439Z,0.30
2022-10-06T02:54:03.984Z,0.30
2022-10-06T02:55:07.543Z,0.30
2022-10-06T02:56:12.257Z,0.30
2022-10-06T02:57:15.401Z,0.30
2022-10-06T02:58:19.650Z,0.30
2022-10-06T02:59:21.529Z,0.30
2022-10-06T03:00:24.494Z,0.30
2022-10-06T03:01:28.278Z,0.38
2022-10-06T03:02:34.262Z,0.30
2022-10-06T03:03:36.953Z,0.28
2022-10-06T03:04:40.631Z,0.30
2022-10-06T03:05:43.127Z,0.30
2022-10-06T03:06:50.922Z,0.30
2022-10-06T03:08:00.145Z,0.20
2022-10-06T03:09:07.849Z,0.30
2022-10-06T03:10:14.261Z,0.30
2022-10-06T03:11:19.716Z,0.30
2022-10-06T03:12:22.374Z,0.30
2022-10-06T03:13:27.496Z,0.20
2022-10-06T03:14:29.546Z,0.30
2022-10-06T03:15:32.396Z,0.30
2022-10-06T03:16:36.257Z,0.30
2022-10-06T03:17:39.933Z,0.30
2022-10-06T03:18:44.128Z,0.30
2022-10-06T03:19:46.989Z,0.30
2022-10-06T03:20:49.573Z,0.28
2022-10-06T03:21:52.700Z,0.30
2022-10-06T03:22:56.236Z,0.30
2022-10-06T03:24:00.547Z,0.30
2022-10-06T03:25:04.012Z,0.40
2022-10-06T03:26:07.433Z,0.30
2022-10-06T03:27:10.542Z,0.40
2022-10-06T03:28:12.733Z,0.30
2022-10-06T03:29:17.278Z,0.30
2022-10-06T03:30:24.321Z,0.38
2022-10-06T03:31:27.831Z,0.30
2022-10-06T03:32:29.999Z,0.30
2022-10-06T03:33:34.724Z,0.30
2022-10-06T03:34:37.763Z,0.32
2022-10-06T03:35:44.628Z,0.30
2022-10-06T03:36:47.609Z,0.38
2022-10-06T03:37:52.805Z,0.30
2022-10-06T03:38:56.271Z,0.30
2022-10-06T03:39:59.006Z,0.30
2022-10-06T03:41:06.887Z,0.40
2022-10-06T03:42:09.322Z,0.40
2022-10-06T03:43:12.394Z,0.30
2022-10-06T03:44:17.436Z,0.30
2022-10-06T03:45:19.683Z,0.30
2022-10-06T03:46:24.608Z,0.30
2022-10-06T03:47:26.534Z,0.30
2022-10-06T03:48:30.436Z,0.40
2022-10-06T03:49:32.690Z,0.30
2022-10-06T03:50:35.574Z,0.30
2022-10-06T03:51:39.545Z,0.30
2022-10-06T03:52:46.287Z,0.30
2022-10-06T03:53:50.072Z,0.30
2022-10-06T03:54:52.953Z,0.30
2022-10-06T03:56:02.338Z,0.40
2022-10-06T03:57:06.703Z,0.30
2022-10-06T03:58:08.825Z,0.30
2022-10-06T03:59:16.396Z,0.30
2022-10-06T04:00:21.313Z,0.30
2022-10-06T04:01:26.770Z,0.30
2022-10-06T04:02:28.968Z,0.30
2022-10-06T04:03:32.647Z,0.25
2022-10-06T04:04:34.485Z,0.30
2022-10-06T04:05:53.666Z,0.30
2022-10-06T04:06:55.587Z,0.30
2022-10-06T04:07:58.458Z,0.30
2022-10-06T04:09:01.131Z,0.38
2022-10-06T04:10:04.989Z,0.30
2022-10-06T04:11:08.910Z,0.30
2022-10-06T04:12:11.724Z,0.30
2022-10-06T04:13:16.306Z,0.20
2022-10-06T04:14:19.202Z,0.30
2022-10-06T04:15:22.837Z,0.30
2022-10-06T04:16:27.731Z,0.30
2022-10-06T04:17:29.892Z,0.30
2022-10-06T04:18:33.142Z,0.30
2022-10-06T04:19:36.428Z,0.30
2022-10-06T04:20:39.037Z,0.30
2022-10-06T04:21:43.737Z,0.30
2022-10-06T04:22:48.149Z,0.38
2022-10-06T04:23:53.464Z,0.40
2022-10-06T04:24:55.482Z,0.30
2022-10-06T04:26:00.481Z,0.30
2022-10-06T04:27:17.750Z,0.38
2022-10-06T04:28:28.013Z,0.30
2022-10-06T04:29:32.227Z,0.30
2022-10-06T04:30:36.126Z,0.30
2022-10-06T04:31:41.165Z,0.30
2022-10-06T04:32:47.342Z,0.30
2022-10-06T04:33:53.840Z,0.40
2022-10-06T04:34:56.828Z,0.30
2022-10-06T04:36:03.085Z,0.30
2022-10-06T04:37:05.395Z,0.40
2022-10-06T04:38:09.467Z,0.40
2022-10-06T04:39:12.982Z,0.40
2022-10-06T04:40:20.009Z,0.40
2022-10-06T04:41:24.083Z,0.40
2022-10-06T04:42:34.685Z,0.30
2022-10-06T04:43:38.293Z,0.40
2022-10-06T04:44:41.329Z,0.40
2022-10-06T04:45:44.589Z,0.40
2022-10-06T04:46:47.603Z,0.40
2022-10-06T04:47:50.687Z,0.40
2022-10-06T04:48:55.610Z,0.40
2022-10-06T04:50:00.404Z,0.40
2022-10-06T04:51:06.072Z,0.30
2022-10-06T04:52:08.012Z,0.40
2022-10-06T04:53:13.040Z,0.40
2022-10-06T04:54:14.946Z,0.40
2022-10-06T04:55:17.827Z,0.40
2022-10-06T04:56:22.184Z,0.40
2022-10-06T04:57:25.262Z,0.40
2022-10-06T04:58:30.751Z,0.40
2022-10-06T04:59:51.739Z,0.40
2022-10-06T05:00:57.071Z,0.40
2022-10-06T05:02:01.991Z,0.30
2022-10-06T05:03:05.711Z,0.30
2022-10-06T05:04:08.295Z,0.35
2022-10-06T05:05:13.161Z,0.40
2022-10-06T05:06:17.906Z,0.32
2022-10-06T05:07:22.448Z,0.40
2022-10-06T05:08:25.043Z,0.40
2022-10-06T05:09:28.389Z,0.40
2022-10-06T05:10:33.545Z,0.50
2022-10-06T05:11:38.120Z,0.50
2022-10-06T05:12:43.178Z,0.50
2022-10-06T05:13:46.380Z,0.40
2022-10-06T05:14:48.695Z,0.40
2022-10-06T05:15:58.235Z,0.30
2022-10-06T05:18:06.641Z,0.50
2022-10-06T05:19:08.643Z,0.40
2022-10-06T05:20:14.150Z,0.40
2022-10-06T05:21:19.295Z,0.40
2022-10-06T05:22:23.410Z,0.40
2022-10-06T05:23:27.167Z,0.50
2022-10-06T05:24:30.321Z,0.40
2022-10-06T05:25:32.845Z,0.50
2022-10-06T05:26:37.164Z,0.50
2022-10-06T05:27:43.261Z,0.40
2022-10-06T05:28:47.154Z,0.50
2022-10-06T05:29:50.097Z,0.50
2022-10-06T05:30:59.461Z,0.50
2022-10-06T05:32:02.913Z,0.60
2022-10-06T05:33:07.317Z,0.40
2022-10-06T05:34:10.955Z,0.50
2022-10-06T05:35:13.718Z,0.40
2022-10-06T05:36:18.439Z,0.50
2022-10-06T05:37:20.569Z,0.40
2022-10-06T05:38:24.213Z,0.50
2022-10-06T05:39:27.578Z,0.55
2022-10-06T05:40:34.953Z,0.50
2022-10-06T05:41:38.177Z,0.52
2022-10-06T05:42:43.701Z,0.40
2022-10-06T05:43:48.027Z,0.50
2022-10-06T05:44:51.433Z,0.50
2022-10-06T05:45:56.260Z,0.45
2022-10-06T05:47:01.143Z,0.40
2022-10-06T05:48:04.234Z,0.40
2022-10-06T05:49:10.610Z,0.47
2022-10-06T05:50:16.693Z,0.50
2022-10-06T05:51:22.584Z,0.52
2022-10-06T05:52:26.227Z,0.50
2022-10-06T05:53:31.411Z,0.50
2022-10-06T05:54:34.007Z,0.50
2022-10-06T05:55:37.487Z,0.50
2022-10-06T05:56:40.498Z,0.52
2022-10-06T05:57:44.005Z,0.50
2022-10-06T05:58:47.957Z,0.60
2022-10-06T05:59:51.598Z,0.50
2022-10-06T06:00:54.004Z,0.60
2022-10-06T06:01:57.723Z,0.50
2022-10-06T06:03:15.169Z,0.50
2022-10-06T06:04:18.303Z,0.50
2022-10-06T06:05:24.245Z,0.40
2022-10-06T06:06:32.816Z,0.50
2022-10-06T06:07:38.312Z,0.50
2022-10-06T06:08:42.078Z,0.50
2022-10-06T06:09:45.426Z,0.40
2022-10-06T06:10:48.260Z,0.50
2022-10-06T06:11:53.658Z,0.50
2022-10-06T06:13:02.728Z,0.47
2022-10-06T06:14:40.685Z,0.40
2022-10-06T06:16:01.699Z,0.50
2022-10-06T06:17:05.575Z,0.40
2022-10-06T06:18:09.654Z,0.40
2022-10-06T06:19:15.385Z,0.40
2022-10-06T06:20:19.024Z,0.50
2022-10-06T06:21:22.585Z,0.50
2022-10-06T06:22:24.918Z,0.50
2022-10-06T06:23:33.650Z,0.50
2022-10-06T06:24:36.331Z,0.45
2022-10-06T06:25:39.650Z,0.47
2022-10-06T06:26:42.974Z,0.50
2022-10-06T06:27:45.490Z,0.45
2022-10-06T06:28:51.066Z,0.40
2022-10-06T06:29:53.645Z,0.50
2022-10-06T06:31:02.507Z,0.40
2022-10-06T06:32:05.964Z,0.50
2022-10-06T06:33:07.912Z,0.50
2022-10-06T06:34:12.074Z,0.40
2022-10-06T06:35:16.509Z,0.50
2022-10-06T06:36:21.532Z,0.40
2022-10-06T06:37:23.449Z,0.50
2022-10-06T06:38:26.801Z,0.50
2022-10-06T06:39:28.806Z,0.40
2022-10-06T06:40:34.182Z,0.50
2022-10-06T06:41:38.091Z,0.50
2022-10-06T06:42:50.284Z,0.50
2022-10-06T06:44:16.289Z,0.50
2022-10-06T06:46:51.177Z,0.50
2022-10-06T06:47:54.363Z,0.40
2022-10-06T06:48:58.852Z,0.45
2022-10-06T06:50:04.562Z,0.50
2022-10-06T06:51:11.872Z,0.50
2022-10-06T06:52:14.008Z,0.50
2022-10-06T06:53:17.393Z,0.50
2022-10-06T06:54:20.981Z,0.50
2022-10-06T06:55:28.461Z,0.40
2022-10-06T06:56:34.785Z,0.60
2022-10-06T06:57:39.105Z,0.50
2022-10-06T06:58:47.753Z,0.50
2022-10-06T06:59:49.777Z,0.50
2022-10-06T07:00:54.163Z,0.40
2022-10-06T07:01:59.690Z,0.50
2022-10-06T07:03:04.608Z,0.40
2022-10-06T07:04:08.075Z,0.47
2022-10-06T07:05:15.948Z,0.50
2022-10-06T07:06:39.948Z,0.45
2022-10-06T07:07:46.192Z,0.50
2022-10-06T07:08:53.217Z,0.45
2022-10-06T07:09:59.807Z,0.30
2022-10-06T07:11:12.962Z,0.30
2022-10-06T07:12:18.553Z,0.40
2022-10-06T07:13:27.118Z,0.40
2022-10-06T07:14:29.576Z,0.40
2022-10-06T07:15:56.283Z,0.40
2022-10-06T07:17:18.065Z,0.40
2022-10-06T07:18:41.946Z,0.40
2022-10-06T07:21:28.746Z,0.40
2022-10-06T07:22:51.315Z,0.30
2022-10-06T07:24:12.486Z,0.40
2022-10-06T07:25:25.606Z,0.30
2022-10-06T07:26:34.990Z,0.40
2022-10-06T07:27:43.144Z,0.40
2022-10-06T07:29:56.797Z,0.40
2022-10-06T07:31:01.679Z,0.40
2022-10-06T07:32:06.264Z,0.40
2022-10-06T07:33:10.093Z,0.40
2022-10-06T07:34:14.768Z,0.40
2022-10-06T07:35:21.243Z,0.40
2022-10-06T07:36:25.734Z,0.40
2022-10-06T07:37:29.019Z,0.50
2022-10-06T07:38:36.571Z,0.40
2022-10-06T07:39:39.157Z,0.40
2022-10-06T07:40:50.589Z,0.40
2022-10-06T07:42:00.246Z,0.40
2022-10-06T07:43:02.736Z,0.50
2022-10-06T07:44:10.718Z,0.50
2022-10-06T07:45:33.171Z,0.40
2022-10-06T07:46:36.446Z,0.50
2022-10-06T07:47:43.800Z,0.50
2022-10-06T07:48:49.600Z,0.60
2022-10-06T07:49:52.085Z,0.50
2022-10-06T07:50:55.318Z,0.55
2022-10-06T07:52:11.486Z,0.50
2022-10-06T07:53:14.573Z,0.50
2022-10-06T07:54:27.266Z,0.50
2022-10-06T07:56:05.665Z,0.57
2022-10-06T07:57:12.416Z,0.57
2022-10-06T07:58:18.732Z,0.50
2022-10-06T07:59:21.342Z,0.50
2022-10-06T08:00:27.146Z,0.50
2022-10-06T08:01:31.135Z,0.50
2022-10-06T08:02:35.763Z,0.50
2022-10-06T08:03:40.088Z,0.50
2022-10-06T08:04:42.100Z,0.40
2022-10-06T08:05:45.197Z,0.50
2022-10-06T08:06:49.503Z,0.50
2022-10-06T08:07:52.864Z,0.50
2022-10-06T08:08:56.660Z,0.60
2022-10-06T08:10:01.213Z,0.50
2022-10-06T08:11:06.075Z,0.50
2022-10-06T08:12:23.235Z,0.50
2022-10-06T08:13:27.887Z,0.50
2022-10-06T08:14:30.843Z,0.50
2022-10-06T08:15:33.628Z,0.40
2022-10-06T08:16:36.967Z,0.43
2022-10-06T08:17:39.233Z,0.50
2022-10-06T08:18:46.864Z,0.50
2022-10-06T08:19:49.294Z,0.50
2022-10-06T08:20:52.188Z,0.50
2022-10-06T08:21:54.949Z,0.50
2022-10-06T08:22:57.044Z,0.50
2022-10-06T08:24:00.118Z,0.50
2022-10-06T08:25:06.488Z,0.50
2022-10-06T08:26:11.191Z,0.50
2022-10-06T08:27:13.227Z,0.50
2022-10-06T08:28:16.891Z,0.50
2022-10-06T08:29:19.970Z,0.50
2022-10-06T08:30:27.422Z,0.60
2022-10-06T08:31:31.314Z,0.50
2022-10-06T08:32:34.957Z,0.40
2022-10-06T08:33:38.681Z,0.45
2022-10-06T08:34:42.162Z,0.40
2022-10-06T08:35:44.544Z,0.40
2022-10-06T08:37:08.574Z,0.50
2022-10-06T08:38:11.246Z,0.43
2022-10-06T08:39:14.406Z,0.50
2022-10-06T08:40:17.985Z,0.40
2022-10-06T08:41:23.802Z,0.40
2022-10-06T08:42:34.358Z,0.38
2022-10-06T08:43:37.874Z,0.40
2022-10-06T08:44:44.474Z,0.40
2022-10-06T08:45:48.851Z,0.40
2022-10-06T08:46:55.519Z,0.40
2022-10-06T08:48:03.532Z,0.50
2022-10-06T08:49:07.233Z,0.40
2022-10-06T08:50:13.589Z,0.40
2022-10-06T08:51:30.526Z,0.40
2022-10-06T08:52:53.006Z,0.50
2022-10-06T08:54:04.966Z,0.40
2022-10-06T08:55:20.115Z,0.50
2022-10-06T08:56:28.632Z,0.50
2022-10-06T08:57:37.728Z,0.43
2022-10-06T08:58:53.054Z,0.30
2022-10-06T08:59:57.441Z,0.40
2022-10-06T09:01:13.891Z,0.40
2022-10-06T09:02:29.415Z,0.30
2022-10-06T09:03:32.547Z,0.30
2022-10-06T09:04:36.138Z,0.38
2022-10-06T09:05:40.617Z,0.30
2022-10-06T09:06:52.301Z,0.30
2022-10-06T09:08:17.904Z,0.40
2022-10-06T09:09:39.502Z,0.40
2022-10-06T09:10:49.805Z,0.43
2022-10-06T09:12:06.781Z,0.43
2022-10-06T09:13:14.280Z,0.50
2022-10-06T09:14:24.702Z,0.50
2022-10-06T09:15:35.351Z,0.50
2022-10-06T09:16:43.299Z,0.40
2022-10-06T09:17:54.273Z,0.40
2022-10-06T09:19:08.539Z,0.30
2022-10-06T09:20:20.546Z,0.43
2022-10-06T09:21:31.680Z,0.30
2022-10-06T09:22:35.075Z,0.40
2022-10-06T09:23:50.462Z,0.40
2022-10-06T09:24:59.151Z,0.38
2022-10-06T09:26:03.512Z,0.40
2022-10-06T09:27:20.480Z,0.30
2022-10-06T09:28:24.360Z,0.40
2022-10-06T09:29:31.886Z,0.40
2022-10-06T09:30:35.770Z,0.38
2022-10-06T09:31:40.207Z,0.50
2022-10-06T09:32:48.030Z,0.60
2022-10-06T09:33:53.708Z,0.50
2022-10-06T09:34:59.890Z,0.50
2022-10-06T09:36:06.298Z,0.40
2022-10-06T09:37:13.049Z,0.50
2022-10-06T09:38:16.054Z,0.50
2022-10-06T09:39:24.834Z,0.50
2022-10-06T09:40:37.421Z,0.50
2022-10-06T09:41:46.580Z,0.50
2022-10-06T09:42:53.614Z,0.50
2022-10-06T09:44:01.008Z,0.40
2022-10-06T09:45:08.066Z,0.30
2022-10-06T09:46:20.945Z,0.30
2022-10-06T09:47:41.933Z,0.40
2022-10-06T09:48:44.435Z,0.40
2022-10-06T09:50:04.514Z,0.40
2022-10-06T09:51:10.271Z,0.40
2022-10-06T09:52:15.253Z,0.40
2022-10-06T09:53:18.647Z,0.30
2022-10-06T09:54:20.908Z,0.30
2022-10-06T09:55:28.650Z,0.40
2022-10-06T09:56:33.384Z,0.30
2022-10-06T09:57:37.308Z,0.40
2022-10-06T09:58:56.394Z,0.30
2022-10-06T10:00:00.154Z,0.40
2022-10-06T10:01:06.820Z,0.40
2022-10-06T10:02:27.300Z,0.43
2022-10-06T10:04:08.345Z,0.40
2022-10-06T10:05:22.516Z,0.40
2022-10-06T10:06:28.832Z,0.40
2022-10-06T10:07:33.170Z,0.40
2022-10-06T10:09:43.911Z,0.50
2022-10-06T10:10:46.805Z,0.40
2022-10-06T10:12:19.913Z,0.40
2022-10-06T10:13:25.546Z,0.32
2022-10-06T10:14:37.496Z,0.47
2022-10-06T10:15:53.734Z,0.50
2022-10-06T10:16:56.436Z,0.50
2022-10-06T10:18:03.169Z,0.40
2022-10-06T10:19:06.102Z,0.40
2022-10-06T10:20:28.456Z,0.40
2022-10-06T10:21:34.406Z,0.40
2022-10-06T10:22:40.364Z,0.40
2022-10-06T10:23:55.351Z,0.50
2022-10-06T10:25:06.379Z,0.40
2022-10-06T10:26:17.772Z,0.40
2022-10-06T10:27:24.195Z,0.40
2022-10-06T10:28:51.738Z,0.40
2022-10-06T10:30:09.995Z,0.28
2022-10-06T10:31:17.722Z,0.40
2022-10-06T10:32:35.306Z,0.40
2022-10-06T10:33:53.941Z,0.30
2022-10-06T10:35:19.960Z,0.40
2022-10-06T10:36:31.623Z,0.40
2022-10-06T10:37:43.561Z,0.40
2022-10-06T10:38:49.026Z,0.40
2022-10-06T10:39:56.569Z,0.40
2022-10-06T10:41:06.721Z,0.30
2022-10-06T10:43:26.836Z,0.30
2022-10-06T10:44:34.901Z,0.30
2022-10-06T10:45:45.396Z,0.40
2022-10-06T10:46:52.442Z,0.40
2022-10-06T10:47:57.468Z,0.38
2022-10-06T10:49:10.084Z,0.30
2022-10-06T10:50:24.550Z,0.40
2022-10-06T10:51:32.953Z,0.40
2022-10-06T10:52:41.375Z,0.30
2022-10-06T10:53:49.571Z,0.30
2022-10-06T10:55:03.288Z,0.40
2022-10-06T10:56:10.151Z,0.30
2022-10-06T10:57:16.254Z,0.40
2022-10-06T10:58:23.773Z,0.30
2022-10-06T10:59:31.798Z,0.40
2022-10-06T11:00:37.943Z,0.30
2022-10-06T11:01:49.051Z,0.30
2022-10-06T11:02:53.684Z,0.30
2022-10-06T11:03:58.897Z,0.30
2022-10-06T11:05:05.721Z,0.22
2022-10-06T11:06:30.445Z,0.30
2022-10-06T11:07:39.391Z,0.40
2022-10-06T11:08:49.775Z,0.30
2022-10-06T11:10:00.172Z,0.40
2022-10-06T11:11:09.430Z,0.40
2022-10-06T11:12:24.543Z,0.32
2022-10-06T11:13:37.430Z,0.40
2022-10-06T11:14:56.133Z,0.40
2022-10-06T11:16:27.510Z,0.40
2022-10-06T11:17:44.194Z,0.40
2022-10-06T11:19:02.597Z,0.40
2022-10-06T11:20:19.178Z,0.40
2022-10-06T11:21:28.577Z,0.38
2022-10-06T11:22:42.512Z,0.40
2022-10-06T11:23:53.243Z,0.35
2022-10-06T11:26:38.186Z,0.40
2022-10-06T11:27:47.521Z,0.40
2022-10-06T11:28:59.276Z,0.30
2022-10-06T11:30:07.559Z,0.32
2022-10-06T11:31:23.195Z,0.30
2022-10-06T11:32:32.814Z,0.30
2022-10-06T11:33:43.457Z,0.40
2022-10-06T11:34:48.848Z,0.40
2022-10-06T11:35:52.316Z,0.40
2022-10-06T11:36:59.482Z,0.40
2022-10-06T11:38:05.976Z,0.40
2022-10-06T11:39:21.525Z,0.30
2022-10-06T11:40:37.100Z,0.40
2022-10-06T11:41:45.209Z,0.40
2022-10-06T11:42:55.316Z,0.50
2022-10-06T11:45:13.908Z,0.40
2022-10-06T11:46:32.096Z,0.40
2022-10-06T11:47:47.340Z,0.40
2022-10-06T11:48:51.983Z,0.40
2022-10-06T11:49:56.002Z,0.40
2022-10-06T11:51:29.872Z,0.32
2022-10-06T11:52:55.346Z,0.30
2022-10-06T11:53:57.514Z,0.30
2022-10-06T11:55:10.446Z,0.30
2022-10-06T11:56:46.598Z,0.30
2022-10-06T11:58:40.934Z,0.35
2022-10-06T11:59:34.400Z,0.40
2022-10-06T12:00:50.203Z,0.40
2022-10-06T12:01:58.422Z,0.30
2022-10-06T12:03:55.881Z,0.30
2022-10-06T12:07:00.974Z,0.30
2022-10-06T12:08:16.961Z,0.40
2022-10-06T12:09:53.624Z,0.30
2022-10-06T12:10:55.941Z,0.40
2022-10-06T12:12:00.632Z,0.30
2022-10-06T12:13:41.257Z,0.40
2022-10-06T12:16:32.306Z,0.40
2022-10-06T12:17:50.967Z,0.40
2022-10-06T12:19:04.192Z,0.40
2022-10-06T12:20:18.695Z,0.40
2022-10-06T12:21:35.594Z,0.40
2022-10-06T12:22:45.390Z,0.40
2022-10-06T12:24:06.634Z,0.40
2022-10-06T12:25:20.284Z,0.30
2022-10-06T12:26:51.614Z,0.38
2022-10-06T12:28:06.128Z,0.40
2022-10-06T12:29:41.671Z,0.40
2022-10-06T12:31:07.379Z,0.30
2022-10-06T12:32:35.109Z,0.40
2022-10-06T12:33:39.621Z,0.40
2022-10-06T12:34:57.797Z,0.40
2022-10-06T12:36:03.886Z,0.40
2022-10-06T12:37:41.501Z,0.40
2022-10-06T12:39:01.440Z,0.40
2022-10-06T12:40:56.568Z,0.40
2022-10-06T12:42:00.542Z,0.40
2022-10-06T12:43:57.319Z,0.40
2022-10-06T12:45:03.822Z,0.40
2022-10-06T12:46:16.485Z,0.40
2022-10-06T12:47:25.176Z,0.32
2022-10-06T12:48:34.362Z,0.40
2022-10-06T12:49:47.312Z,0.40
2022-10-06T12:50:54.800Z,0.40
2022-10-06T12:52:00.668Z,0.30
2022-10-06T12:53:18.311Z,0.30
2022-10-06T12:54:26.438Z,0.32
2022-10-06T12:55:44.514Z,0.40
2022-10-06T12:57:00.134Z,0.40
2022-10-06T12:58:02.629Z,0.40
2022-10-06T12:59:26.106Z,0.40
2022-10-06T13:00:37.529Z,0.40
2022-10-06T13:01:40.372Z,0.40
2022-10-06T13:02:46.099Z,0.30
2022-10-06T13:03:49.050Z,0.40
2022-10-06T13:04:54.719Z,0.40
2022-10-06T13:06:02.687Z,0.50
2022-10-06T13:07:12.350Z,0.40
2022-10-06T13:08:26.135Z,0.40
2022-10-06T13:09:28.716Z,0.40
2022-10-06T13:10:33.540Z,0.40
2022-10-06T13:11:39.944Z,0.40
2022-10-06T13:12:46.870Z,0.30
2022-10-06T13:13:52.345Z,0.40
2022-10-06T13:15:15.632Z,0.40
2022-10-06T13:16:22.172Z,0.30
2022-10-06T13:17:25.192Z,0.30
2022-10-06T13:18:32.803Z,0.30
2022-10-06T13:19:36.130Z,0.30
2022-10-06T13:20:42.389Z,0.40
2022-10-06T13:21:45.958Z,0.40
2022-10-06T13:22:57.445Z,0.40
2022-10-06T13:24:01.880Z,0.40
2022-10-06T13:25:04.536Z,0.40
2022-10-06T13:26:09.301Z,0.30
2022-10-06T13:27:17.429Z,0.40
2022-10-06T13:28:24.108Z,0.40
2022-10-06T13:29:30.494Z,0.38
2022-10-06T13:30:37.725Z,0.40
2022-10-06T13:31:51.887Z,0.40
2022-10-06T13:32:58.059Z,0.32
2022-10-06T13:34:03.835Z,0.40
2022-10-06T13:35:06.580Z,0.40
2022-10-06T13:36:11.523Z,0.40
2022-10-06T13:37:16.332Z,0.35
2022-10-06T13:38:18.683Z,0.40
2022-10-06T13:39:25.440Z,0.40
2022-10-06T13:40:47.287Z,0.30
2022-10-06T13:41:53.641Z,0.30
2022-10-06T13:42:57.112Z,0.40
2022-10-06T13:44:02.231Z,0.40
2022-10-06T13:45:05.980Z,0.40
2022-10-06T13:46:12.912Z,0.30
2022-10-06T13:47:17.865Z,0.40
2022-10-06T13:48:21.885Z,0.30
2022-10-06T13:49:29.806Z,0.40
2022-10-06T13:50:32.140Z,0.30
2022-10-06T13:51:34.972Z,0.30
2022-10-06T13:52:40.196Z,0.40
2022-10-06T13:53:45.960Z,0.40
2022-10-06T13:54:54.934Z,0.30
2022-10-06T13:55:57.585Z,0.28
2022-10-06T13:57:00.491Z,0.30
2022-10-06T13:58:10.121Z,0.30
2022-10-06T13:59:37.353Z,0.30
2022-10-06T14:00:51.498Z,0.40
2022-10-06T14:01:54.532Z,0.30
2022-10-06T14:03:10.415Z,0.40
2022-10-06T14:04:13.489Z,0.40
2022-10-06T14:05:26.725Z,0.30
2022-10-06T14:06:29.651Z,0.38
2022-10-06T14:07:31.665Z,0.30
2022-10-06T14:08:35.004Z,0.40
2022-10-06T14:09:36.991Z,0.30
2022-10-06T14:10:49.723Z,0.40
2022-10-06T14:11:55.677Z,0.30
2022-10-06T14:12:59.671Z,0.40
2022-10-06T14:14:04.876Z,0.40
2022-10-06T14:15:18.491Z,0.40
2022-10-06T14:16:24.242Z,0.40
2022-10-06T14:17:30.237Z,0.40
2022-10-06T14:18:37.697Z,0.30
2022-10-06T14:19:41.327Z,0.40
2022-10-06T14:20:49.515Z,0.30
2022-10-06T14:21:51.640Z,0.40
2022-10-06T14:22:54.642Z,0.40
2022-10-06T14:23:57.149Z,0.40
2022-10-06T14:25:00.463Z,0.40
2022-10-06T14:26:03.969Z,0.30
2022-10-06T14:27:08.275Z,0.40
2022-10-06T14:28:10.232Z,0.40
2022-10-06T14:29:14.516Z,0.40
2022-10-06T14:30:16.868Z,0.40
2022-10-06T14:31:20.792Z,0.40
2022-10-06T14:32:22.706Z,0.40
2022-10-06T14:33:25.914Z,0.30
2022-10-06T14:34:29.141Z,0.30
2022-10-06T14:35:31.089Z,0.40
2022-10-06T14:36:36.689Z,0.40
2022-10-06T14:37:39.723Z,0.30
2022-10-06T14:38:42.079Z,0.40
2022-10-06T14:39:46.454Z,0.40
2022-10-06T14:40:48.517Z,0.30
2022-10-06T14:41:53.087Z,0.30
2022-10-06T14:42:55.367Z,0.30
2022-10-06T14:44:01.371Z,0.30
2022-10-06T14:45:03.665Z,0.40
2022-10-06T14:46:09.463Z,0.40
2022-10-06T14:47:14.069Z,0.30
2022-10-06T14:48:15.989Z,0.40
2022-10-06T14:49:19.486Z,0.40
2022-10-06T14:50:21.354Z,0.38
2022-10-06T14:51:26.004Z,0.40
2022-10-06T14:52:29.270Z,0.40
2022-10-06T14:53:31.478Z,0.40
2022-10-06T14:54:34.663Z,0.40
2022-10-06T14:55:37.477Z,0.40
2022-10-06T14:56:41.631Z,0.40
2022-10-06T14:57:46.024Z,0.40
2022-10-06T14:58:48.893Z,0.30
2022-10-06T14:59:51.485Z,0.30
2022-10-06T15:00:54.333Z,0.30
2022-10-06T15:01:57.170Z,0.30
2022-10-06T15:02:59.155Z,0.30
2022-10-06T15:04:05.103Z,0.40
2022-10-06T15:05:07.418Z,0.30
2022-10-06T15:06:29.964Z,0.30